Latest Weather Observations for Cape Leeuwin

IDW60801

Issued at 5:35 am WST Thursday 23 October 2014 (issued every 30 minutes, with the page automatically refreshed every 10 minutes)

About weather observations | Map of weather stations | Latest weather observations for WA | Other Formats
Station Details ID: 009518 Name: CAPE LEEUWIN Lat: -34.37 Lon: 115.14 Height: 13.0 m
Data from the previous 72 hours. | See also: Recent months at Cape Leeuwin
Date/Time
WST
Temp
°C
App
Temp
°C
Dew
Point
Rel
Hum
%
Delta-T
°C
Wind Press
QNH
hPa
Press
MSL
hPa
Rain
since 9 am
mm
Dir
 
Spd
km/h
Gust
km/h
Spd
kts
Gust
kts
23/05:30am 17.5 11.9 15.5 88 1.2 WSW 39 44 21 24 1010.9 1010.9 0.0
23/05:23am 17.5 11.4 15.1 86 1.4 WSW 41 44 22 24 1010.8 1010.8 0.0
23/05:00am 17.6 11.1 15.0 85 1.5 WNW 43 50 23 27 1010.5 1010.5 0.0
23/04:30am 17.8 12.3 14.7 82 1.8 WNW 37 44 20 24 1010.5 1010.5 0.0
23/04:00am 17.6 11.4 14.8 84 1.6 WNW 41 46 22 25 1010.4 1010.4 0.0
23/03:30am 17.6 11.5 14.1 80 2.0 NW 39 46 21 25 1010.2 1010.2 0.0
23/03:00am 17.4 11.7 14.3 82 1.8 WNW 37 41 20 22 1010.1 1010.1 0.0
23/02:30am 17.6 11.6 14.5 82 1.8 NW 39 43 21 23 1010.1 1010.1 0.0
23/02:00am 17.7 12.1 14.4 81 1.9 WNW 37 43 20 23 1010.2 1010.2 0.0
23/01:30am 17.8 12.2 14.5 81 1.9 WNW 37 43 20 23 1010.5 1010.5 0.0
23/01:00am 17.8 13.0 14.7 82 1.8 NW 33 37 18 20 1010.6 1010.6 0.0
23/12:30am 17.7 14.2 14.4 81 1.9 NW 26 28 14 15 1010.6 1010.6 0.0
23/12:00am 17.9 14.1 14.6 81 1.9 WNW 28 32 15 17 1011.1 1011.1 0.0
 
Date/Time
WST
Temp
°C
App
Temp
°C
Dew
Point
Rel
Hum
%
Delta-T
°C
Wind Press
QNH
hPa
Press
MSL
hPa
Rain
since 9 am
mm
Dir
 
Spd
km/h
Gust
km/h
Spd
kts
Gust
kts
22/11:30pm 17.8 13.1 14.9 83 1.7 WNW 33 39 18 21 1011.5 1011.5 0.0
22/11:00pm 18.0 13.5 14.9 82 1.8 WNW 32 37 17 20 1011.8 1011.8 0.0
22/10:30pm 18.1 13.6 14.8 81 1.9 WNW 32 35 17 19 1011.9 1011.9 0.0
22/10:00pm 18.3 14.0 15.4 83 1.7 W 32 37 17 20 1012.1 1012.1 0.0
22/09:30pm 18.3 14.6 15.0 81 1.9 W 28 32 15 17 1011.8 1011.8 0.0
22/09:00pm 18.5 15.7 15.4 82 1.8 W 24 28 13 15 1011.8 1011.8 0.0
22/08:30pm 18.7 15.2 15.5 81 1.9 WNW 28 32 15 17 1011.8 1011.8 0.0
22/08:00pm 18.9 15.4 15.5 80 2.0 W 28 33 15 18 1011.7 1011.7 0.0
22/07:30pm 19.1 15.8 16.1 83 1.8 WNW 28 32 15 17 1011.5 1011.5 0.0
22/07:00pm 19.2 16.6 16.0 82 1.9 WNW 24 26 13 14 1011.1 1011.1 0.0
22/06:30pm 19.5 16.9 15.8 79 2.2 WNW 24 28 13 15 1010.7 1010.7 0.0
22/06:00pm 20.2 17.6 16.0 77 2.5 WNW 24 26 13 14 1010.6 1010.6 0.0
22/05:30pm 20.5 16.7 15.8 74 2.8 WNW 30 37 16 20 1010.0 1010.0 0.0
22/05:00pm 21.2 18.4 16.4 74 2.9 W 26 30 14 16 1009.5 1009.5 0.0
22/04:30pm 21.7 19.2 17.0 74 2.9 W 26 28 14 15 1009.4 1009.4 0.0
22/04:00pm 21.7 19.5 17.0 74 2.9 W 24 28 13 15 1009.2 1009.2 0.0
22/03:30pm 21.7 21.6 17.8 78 2.4 WNW 15 19 8 10 1009.8 1009.8 0.0
22/03:00pm 22.2 21.9 17.3 74 3.0 SW 15 19 8 10 1009.8 1009.8 0.0
22/02:30pm 22.3 22.3 17.3 73 3.1 WSW 13 15 7 8 1010.3 1010.3 0.0
22/02:00pm 22.8 23.2 16.4 67 3.9 SW 9 19 5 10 1010.6 1010.6 0.0
22/01:30pm 23.2 22.6 17.6 71 3.5 SE 17 20 9 11 1010.6 1010.6 0.0
22/01:00pm 22.7 22.6 17.0 70 3.5 E 13 17 7 9 1010.9 1010.9 0.0
22/12:30pm 23.0 20.0 16.8 68 3.8 ESE 28 33 15 18 1011.2 1011.2 0.0
22/12:00pm 22.3 19.1 16.4 69 3.6 E 28 32 15 17 1011.6 1011.6 0.0
22/11:30am 22.1 17.9 16.1 69 3.6 E 33 39 18 21 1012.4 1012.4 0.0
22/11:00am 21.8 19.0 16.3 71 3.3 ESE 26 30 14 16 1013.2 1013.2 0.0
22/10:30am 19.6 17.9 14.6 73 2.9 ESE 17 22 9 12 1014.5 1014.5 0.0
22/10:00am 19.6 16.2 13.7 68 3.4 ESE 24 28 13 15 1015.0 1015.0 0.0
22/09:30am 18.8 14.5 13.3 70 3.1 E 28 35 15 19 1015.7 1015.7 0.0
22/09:00am 17.3 10.7 12.6 74 2.6 E 39 44 21 24 1015.7 1015.7 0.0
22/08:30am 16.9 10.3 12.6 76 2.4 E 39 44 21 24 1016.0 1016.0 0.0
22/08:00am 16.0 8.3 12.0 77 2.2 E 44 52 24 28 1016.1 1016.1 0.0
22/07:30am 16.5 9.1 12.3 76 2.3 E 43 50 23 27 1016.2 1016.2 0.0
22/07:00am 16.0 8.4 11.8 76 2.3 E 43 50 23 27 1016.7 1016.7 0.0
22/06:30am 15.8 8.6 11.9 77 2.1 E 41 46 22 25 1016.9 1016.9 0.0
22/06:00am 15.0 8.0 11.2 78 2.0 E 39 46 21 25 1017.0 1017.0 0.0
22/05:30am 14.8 6.7 10.8 77 2.1 E 44 50 24 27 1016.9 1016.9 0.0
22/05:00am 14.7 6.9 11.1 79 1.9 E 43 50 23 27 1016.7 1016.7 0.0
22/04:30am 14.5 6.4 10.7 78 2.0 E 44 50 24 27 1016.9 1016.9 0.0
22/04:00am 14.5 6.3 10.5 77 2.1 E 44 50 24 27 1017.0 1017.0 0.0
22/03:30am 14.5 5.8 10.1 75 2.3 E 46 50 25 27 1017.1 1017.1 0.0
22/03:00am 14.3 5.2 9.8 74 2.3 E 48 56 26 30 1017.2 1017.2 0.0
22/02:30am 14.5 5.4 9.9 74 2.4 E 48 56 26 30 1017.7 1017.7 0.0
22/02:00am 14.7 5.9 9.7 72 2.6 E 46 54 25 29 1018.2 1018.2 0.0
22/01:30am 14.9 6.8 9.9 72 2.6 E 43 50 23 27 1018.8 1018.8 0.0
22/01:00am 14.8 6.3 9.3 69 2.8 E 44 52 24 28 1019.1 1019.1 0.0
22/12:30am 15.0 5.7 9.1 68 3.0 E 48 56 26 30 1019.4 1019.4 0.0
22/12:00am 15.5 6.4 8.6 63 3.5 E 46 57 25 31 1019.8 1019.8 0.0
 
Date/Time
WST
Temp
°C
App
Temp
°C
Dew
Point
Rel
Hum
%
Delta-T
°C
Wind Press
QNH
hPa
Press
MSL
hPa
Rain
since 9 am
mm
Dir
 
Spd
km/h
Gust
km/h
Spd
kts
Gust
kts
21/11:30pm 15.5 7.3 9.7 68 3.0 E 43 54 23 29 1020.4 1020.4 0.0
21/11:00pm 15.7 6.8 9.3 65 3.3 E 46 56 25 30 1020.2 1020.2 0.0
21/10:30pm 16.2 7.3 9.2 63 3.6 E 46 56 25 30 1020.7 1020.7 0.0
21/10:00pm 16.5 7.1 10.0 65 3.4 E 50 56 27 30 1020.8 1020.8 0.0
21/09:30pm 16.6 6.7 8.1 57 4.3 ESE 50 57 27 31 1021.4 1021.4 0.0
21/09:00pm 17.0 7.9 9.7 62 3.8 ESE 48 56 26 30 1021.6 1021.6 0.0
21/08:30pm 17.0 9.3 10.0 63 3.7 ESE 41 50 22 27 1022.0 1022.0 0.0
21/08:00pm 17.0 10.1 10.2 64 3.6 ESE 37 46 20 25 1022.1 1022.1 0.0
21/07:30pm 16.9 9.7 10.5 66 3.4 ESE 39 48 21 26 1021.7 1021.7 0.0
21/07:00pm 16.9 10.5 10.7 67 3.3 SE 35 44 19 24 1021.5 1021.5 0.0
21/06:30pm 16.9 10.5 8.7 58 4.2 SE 32 41 17 22 1021.6 1021.6 0.0
21/06:00pm 16.9 11.1 9.4 61 3.9 SE 30 37 16 20 1021.7 1021.7 0.0
21/05:30pm 17.1 11.8 9.9 62 3.8 SE 28 35 15 19 1021.5 1021.5 0.0
21/05:00pm 17.4 12.1 10.0 62 3.9 SE 28 33 15 18 1021.2 1021.2 0.0
21/04:30pm 17.9 13.3 9.5 58 4.4 SE 24 30 13 16 1021.6 1021.6 0.0
21/04:00pm 17.8 13.4 8.9 56 4.6 SE 22 28 12 15 1021.5 1021.5 0.0
21/03:30pm 18.1 14.2 8.8 54 4.8 SE 19 24 10 13 1021.8 1021.8 0.0
21/03:00pm 18.1 14.6 8.8 54 4.8 SE 17 22 9 12 1022.2 1022.2 0.0
21/02:30pm 18.7 14.6 7.9 49 5.5 ESE 19 24 10 13 1022.1 1022.1 0.0
21/02:00pm 19.3 15.0 8.0 48 5.8 ESE 20 22 11 12 1022.4 1022.4 0.0
21/01:30pm 19.7 16.1 8.5 48 5.8 ESE 17 20 9 11 1022.7 1022.7 0.0
21/01:00pm 19.0 15.1 8.6 51 5.4 E 19 22 10 12 1022.8 1022.8 0.0
21/12:30pm 18.4 14.8 8.5 52 5.1 E 17 20 9 11 1023.2 1023.2 0.0
21/12:00pm 18.4 14.8 8.5 52 5.1 E 17 22 9 12 1022.9 1022.9 0.0
21/11:30am 18.3 14.3 8.4 52 5.1 E 19 24 10 13 1023.1 1023.1 0.0
21/11:00am 17.8 13.8 8.4 54 4.8 E 19 22 10 12 1023.2 1023.2 0.0
21/10:30am 18.1 14.2 8.6 54 4.9 E 19 22 10 12 1023.2 1023.2 0.0
21/10:00am 16.9 13.2 8.0 55 4.5 E 17 22 9 12 1023.2 1023.2 0.0
21/09:30am 17.2 14.2 7.9 54 4.7 E 13 19 7 10 1023.3 1023.3 0.0
21/09:00am 17.5 14.9 7.8 53 4.9 E 11 15 6 8 1023.2 1023.2 0.2
21/08:30am 16.7 14.2 8.2 57 4.3 E 11 15 6 8 1023.0 1023.0 0.2
21/08:00am 16.7 14.6 8.4 58 4.2 NE 9 13 5 7 1022.8 1022.8 0.2
21/07:30am 15.7 13.2 8.1 60 3.8 NE 11 13 6 7 1022.6 1022.6 0.2
21/07:00am 14.2 11.4 8.4 68 2.9 NNE 13 15 7 8 1022.1 1022.1 0.2
21/06:30am 13.4 10.9 8.1 70 2.6 NNE 11 13 6 7 1021.9 1021.9 0.2
21/06:00am 12.8 10.9 7.4 69 2.6 ENE 7 9 4 5 1021.8 1021.8 0.2
21/05:30am 12.9 11.4 6.8 66 2.9 ENE 4 7 2 4 1021.7 1021.7 0.2
21/05:00am 13.5 12.5 7.3 66 3.0 SSW 2 9 1 5 1021.4 1021.4 0.2
21/04:30am 13.3 11.3 7.1 66 3.0 SSW 7 9 4 5 1021.1 1021.1 0.2
21/04:00am 13.3 10.8 6.6 64 3.2 SSW 9 13 5 7 1020.9 1020.9 0.2
21/03:30am 13.1 10.5 6.1 62 3.3 SSW 9 11 5 6 1020.7 1020.7 0.2
21/03:00am 13.2 10.7 6.5 64 3.2 S 9 11 5 6 1020.7 1020.7 0.2
21/02:30am 13.5 10.6 6.6 63 3.3 SSW 11 13 6 7 1020.5 1020.5 0.2
21/02:00am 13.7 10.4 6.6 62 3.4 SW 13 15 7 8 1020.4 1020.4 0.2
21/01:30am 13.4 10.9 6.7 64 3.2 SSW 9 13 5 7 1020.5 1020.5 0.2
21/01:00am 13.5 11.1 7.1 65 3.1 SSW 9 15 5 8 1020.4 1020.4 0.2
21/12:30am 13.6 11.2 7.0 64 3.2 S 9 11 5 6 1020.4 1020.4 0.2
21/12:00am 13.4 11.0 7.2 66 3.0 S 9 13 5 7 1020.4 1020.4 0.2
 
Date/Time
WST
Temp
°C
App
Temp
°C
Dew
Point
Rel
Hum
%
Delta-T
°C
Wind Press
QNH
hPa
Press
MSL
hPa
Rain
since 9 am
mm
Dir
 
Spd
km/h
Gust
km/h
Spd
kts
Gust
kts
20/11:30pm 13.4 10.7 7.5 67 2.9 S 11 17 6 9 1020.5 1020.5 0.2
20/11:00pm 13.5 11.1 7.1 65 3.1 S 9 13 5 7 1020.5 1020.5 0.2
20/10:30pm 13.9 10.8 7.1 63 3.3 S 13 19 7 10 1020.7 1020.7 0.2
20/10:00pm 14.1 10.5 6.9 62 3.5 S 15 20 8 11 1020.8 1020.8 0.2
20/09:30pm 14.7 11.3 7.6 62 3.5 S 15 20 8 11 1020.8 1020.8 0.2
20/09:00pm 14.4 10.9 7.0 61 3.6 SSW 15 20 8 11 1020.8 1020.8 0.2
20/08:30pm 14.5 10.9 6.6 59 3.8 SW 15 22 8 12 1020.9 1020.9 0.2
20/08:00pm 15.2 10.0 7.3 59 3.9 SW 24 32 13 17 1021.1 1021.1 0.2
20/07:30pm 14.6 10.2 7.2 61 3.6 SW 20 26 11 14 1020.4 1020.4 0.2
20/07:00pm 14.5 10.1 7.4 62 3.5 SSW 20 24 11 13 1020.3 1020.3 0.2
20/06:30pm 15.1 10.0 7.6 61 3.7 SW 24 30 13 16 1020.3 1020.3 0.2
20/06:00pm 15.3 10.5 7.4 59 3.9 SW 22 32 12 17 1019.9 1019.9 0.2
20/05:30pm 16.0 11.5 8.7 62 3.7 SW 22 28 12 15 1019.6 1019.6 0.2
20/05:00pm 16.2 11.1 9.2 63 3.6 SW 26 30 14 16 1019.5 1019.5 0.2
20/04:30pm 17.6 12.4 10.2 62 3.9 SW 28 37 15 20 1019.3 1019.3 0.2
20/04:00pm 17.3 12.1 10.3 63 3.7 SW 28 33 15 18 1019.1 1019.1 0.2
20/03:30pm 17.0 11.9 10.6 66 3.4 SW 28 33 15 18 1019.1 1019.1 0.2
20/03:00pm 17.4 11.7 11.3 67 3.3 SW 32 37 17 20 1018.9 1018.9 0.2
20/02:30pm 17.0 12.8 12.3 74 2.6 SW 26 32 14 17 1018.8 1018.8 0.2
20/02:00pm 16.7 11.3 12.3 75 2.4 SW 32 39 17 21 1018.5 1018.5 0.2
20/01:30pm 18.5 14.3 12.4 67 3.4 SW 26 32 14 17 1018.4 1018.4 0.2
20/01:00pm 17.5 12.9 12.4 72 2.8 SW 28 33 15 18 1018.4 1018.4 0.2
20/12:30pm 16.2 11.8 13.0 81 1.8 SSW 28 32 15 17 1018.3 1018.3 0.2
20/12:00pm 16.1 12.5 13.2 83 1.6 SSW 24 30 13 16 1018.3 1018.3 0.2
20/11:30am 15.9 13.3 13.2 84 1.5 WSW 19 26 10 14 1018.2 1018.2 0.2
20/11:00am 16.6 12.2 13.0 79 2.0 SW 28 33 15 18 1018.2 1018.2 0.2
20/10:30am 18.2 14.9 12.8 71 3.0 SSW 22 30 12 16 1018.1 1018.1 0.0
20/10:00am 18.0 14.9 12.2 69 3.2 S 20 26 11 14 1017.9 1017.9 0.0
20/09:30am 16.9 12.5 12.9 77 2.2 SSW 28 35 15 19 1018.1 1018.1 0.0
20/09:00am 17.0 13.1 12.1 73 2.7 S 24 32 13 17 1017.9 1017.9 2.6
20/08:30am 15.7 11.3 11.8 77 2.1 S 26 32 14 17 1017.9 1017.9 2.6
20/08:00am 15.5 11.0 11.4 76 2.2 S 26 35 14 19 1017.9 1017.9 2.6
20/07:30am 15.4 10.1 11.3 76 2.2 S 30 41 16 22 1017.8 1017.8 2.6
20/07:00am 15.1 9.5 11.6 79 1.9 S 32 41 17 22 1017.4 1017.4 2.6
20/06:30am 14.7 9.5 11.7 82 1.6 S 30 39 16 21 1017.2 1017.2 2.6
20/06:00am 14.2 8.6 11.6 84 1.4 S 32 43 17 23 1017.0 1017.0 2.6

Other Formats:

Comma delimited format used in spreadsheet applications
http://www.bom.gov.au/fwo/IDW60801/IDW60801.94601.axf

JavaScript Object Notation format (JSON) in row-major order
http://www.bom.gov.au/fwo/IDW60801/IDW60801.94601.json